createdAt,value
2022-10-23T00:01:44.661Z,95259.94
2022-10-23T00:04:20.676Z,95261.78
2022-10-23T00:06:48.932Z,95258.81
2022-10-23T00:09:19.305Z,95247.66
2022-10-23T00:11:47.827Z,95258.81
2022-10-23T00:14:16.021Z,95248.06
2022-10-23T00:16:42.591Z,95242.88
2022-10-23T00:19:09.279Z,95240.91
2022-10-23T00:21:36.237Z,95250.09
2022-10-23T00:24:03.007Z,95235.59
2022-10-23T00:26:29.708Z,95236.84
2022-10-23T00:28:56.400Z,95232.06
2022-10-23T00:31:26.162Z,95235.25
2022-10-23T00:33:53.091Z,95242.53
2022-10-23T00:36:21.302Z,95248.00
2022-10-23T00:38:48.767Z,95248.47
2022-10-23T00:41:22.010Z,95248.00
2022-10-23T00:44:01.863Z,95245.44
2022-10-23T00:46:28.718Z,95249.16
2022-10-23T00:48:56.963Z,95250.47
2022-10-23T00:51:27.704Z,95249.25
2022-10-23T00:54:12.910Z,95235.69
2022-10-23T00:56:46.699Z,95239.72
2022-10-23T00:59:14.162Z,95243.41
2022-10-23T01:01:41.513Z,95241.50
2022-10-23T01:04:09.984Z,95236.66
2022-10-23T01:06:52.754Z,95251.69
2022-10-23T01:09:37.586Z,95241.06
2022-10-23T01:12:23.684Z,95230.66
2022-10-23T01:15:01.057Z,95237.44
2022-10-23T01:17:42.353Z,95240.91
2022-10-23T01:20:35.276Z,95246.25
2022-10-23T01:23:12.297Z,95247.91
2022-10-23T01:25:57.169Z,95247.38
2022-10-23T01:28:39.698Z,95250.41
2022-10-23T01:31:16.225Z,95247.19
2022-10-23T01:33:48.822Z,95232.88
2022-10-23T01:36:20.867Z,95233.72
2022-10-23T01:38:58.287Z,95220.66
2022-10-23T01:41:24.899Z,95217.78
2022-10-23T01:43:51.544Z,95217.88
2022-10-23T01:46:18.761Z,95217.00
2022-10-23T01:48:55.515Z,95212.47
2022-10-23T01:51:27.982Z,95220.31
2022-10-23T01:54:01.040Z,95211.13
2022-10-23T01:56:35.538Z,95211.66
2022-10-23T01:59:08.569Z,95205.50
2022-10-23T02:01:41.737Z,95204.78
2022-10-23T02:04:13.290Z,95194.38
2022-10-23T02:06:39.967Z,95202.59
2022-10-23T02:09:07.709Z,95202.31
2022-10-23T02:11:48.400Z,95199.22
2022-10-23T02:14:35.168Z,95193.69
2022-10-23T02:17:40.788Z,95193.25
2022-10-23T02:20:10.268Z,95178.78
2022-10-23T02:22:44.228Z,95187.22
2022-10-23T02:25:19.918Z,95195.00
2022-10-23T02:27:56.967Z,95191.38
2022-10-23T02:30:24.036Z,95185.63
2022-10-23T02:32:54.716Z,95186.31
2022-10-23T02:35:24.820Z,95182.97
2022-10-23T02:37:56.469Z,95181.97
2022-10-23T02:40:31.570Z,95176.19
2022-10-23T02:43:20.130Z,95164.13
2022-10-23T02:46:25.582Z,95180.69
2022-10-23T02:49:15.200Z,95170.63
2022-10-23T02:52:00.736Z,95162.13
2022-10-23T02:54:47.573Z,95164.28
2022-10-23T02:57:35.436Z,95163.44
2022-10-23T03:00:01.962Z,95154.03
2022-10-23T03:02:50.108Z,95156.97
2022-10-23T03:05:22.211Z,95166.94
2022-10-23T03:07:49.876Z,95164.19
2022-10-23T03:10:16.581Z,95152.78
2022-10-23T03:12:44.084Z,95147.97
2022-10-23T03:15:11.762Z,95145.53
2022-10-23T03:17:38.574Z,95129.72
2022-10-23T03:20:06.651Z,95129.88
2022-10-23T03:22:33.932Z,95133.47
2022-10-23T03:25:00.562Z,95128.31
2022-10-23T03:29:58.614Z,95132.19
2022-10-23T03:32:25.236Z,95129.88
2022-10-23T03:34:51.833Z,95137.25
2022-10-23T03:37:21.598Z,95153.94
2022-10-23T03:39:48.435Z,95156.50
2022-10-23T03:42:15.028Z,95153.66
2022-10-23T03:44:41.623Z,95156.22
2022-10-23T03:47:08.194Z,95155.94
2022-10-23T03:49:34.782Z,95161.66
2022-10-23T03:52:01.412Z,95159.75
2022-10-23T03:54:28.325Z,95158.84
2022-10-23T03:56:57.522Z,95157.81
2022-10-23T03:59:24.682Z,95148.97
2022-10-23T04:01:52.935Z,95152.50
2022-10-23T04:04:19.690Z,95154.69
2022-10-23T04:06:46.309Z,95158.59
2022-10-23T04:11:44.673Z,95152.97
2022-10-23T04:14:31.254Z,95151.59
2022-10-23T04:17:05.050Z,95161.09
2022-10-23T04:19:31.676Z,95153.22
2022-10-23T04:21:58.278Z,95144.50
2022-10-23T04:24:25.883Z,95149.19
2022-10-23T04:26:52.694Z,95142.59
2022-10-23T04:29:19.727Z,95146.97
2022-10-23T04:31:46.321Z,95158.84
2022-10-23T04:34:12.924Z,95158.53
2022-10-23T04:36:39.502Z,95154.84
2022-10-23T04:39:06.284Z,95154.47
2022-10-23T04:41:32.942Z,95146.28
2022-10-23T04:43:59.583Z,95144.34
2022-10-23T04:46:26.198Z,95148.81
2022-10-23T04:48:52.772Z,95147.22
2022-10-23T04:51:19.376Z,95146.84
2022-10-23T04:53:45.982Z,95147.31
2022-10-23T04:56:15.773Z,95141.91
2022-10-23T04:58:42.839Z,95148.59
2022-10-23T05:01:10.559Z,95152.78
2022-10-23T05:03:38.295Z,95153.94
2022-10-23T05:06:06.148Z,95165.56
2022-10-23T05:08:33.052Z,95159.88
2022-10-23T05:10:59.921Z,95161.03
2022-10-23T05:13:26.502Z,95156.00
2022-10-23T05:15:53.745Z,95152.84
2022-10-23T05:18:29.102Z,95148.03
2022-10-23T05:21:02.477Z,95144.66
2022-10-23T05:23:33.254Z,95141.69
2022-10-23T05:26:00.362Z,95145.53
2022-10-23T05:28:27.078Z,95151.28
2022-10-23T05:30:53.781Z,95147.53
2022-10-23T05:33:20.509Z,95152.16
2022-10-23T05:35:47.176Z,95157.41
2022-10-23T05:38:15.242Z,95149.47
2022-10-23T05:40:41.873Z,95155.78
2022-10-23T05:43:08.459Z,95140.78
2022-10-23T05:45:35.199Z,95145.38
2022-10-23T05:48:11.029Z,95141.50
2022-10-23T05:50:48.616Z,95142.28
2022-10-23T05:53:15.200Z,95144.19
2022-10-23T05:55:44.093Z,95142.00
2022-10-23T05:58:10.712Z,95147.38
2022-10-23T06:00:37.273Z,95149.19
2022-10-23T06:03:03.990Z,95150.31
2022-10-23T06:05:30.586Z,95144.34
2022-10-23T06:07:58.945Z,95151.00
2022-10-23T06:10:26.445Z,95135.19
2022-10-23T06:12:53.041Z,95130.59
2022-10-23T06:15:19.669Z,95137.31
2022-10-23T06:17:46.418Z,95144.31
2022-10-23T06:20:13.237Z,95143.06
2022-10-23T06:22:40.185Z,95142.38
2022-10-23T06:25:07.863Z,95150.63
2022-10-23T06:27:34.451Z,95158.03
2022-10-23T06:30:01.028Z,95150.41
2022-10-23T06:32:32.316Z,95159.09
2022-10-23T06:34:58.953Z,95152.00
2022-10-23T06:37:25.510Z,95159.84
2022-10-23T06:39:52.083Z,95157.13
2022-10-23T06:42:18.764Z,95153.63
2022-10-23T06:44:45.338Z,95151.00
2022-10-23T06:47:12.039Z,95146.63
2022-10-23T06:49:38.668Z,95147.84
2022-10-23T06:52:05.312Z,95143.34
2022-10-23T06:54:33.396Z,95138.72
2022-10-23T06:57:00.054Z,95143.19
2022-10-23T06:59:26.764Z,95145.78
2022-10-23T07:04:20.178Z,95145.56
2022-10-23T07:06:46.827Z,95149.22
2022-10-23T07:09:15.554Z,95136.03
2022-10-23T07:11:42.216Z,95153.50
2022-10-23T07:14:08.901Z,95148.47
2022-10-23T07:16:35.645Z,95148.97
2022-10-23T07:19:02.362Z,95144.69
2022-10-23T07:21:32.457Z,95150.75
2022-10-23T07:23:59.273Z,95141.88
2022-10-23T07:26:25.934Z,95137.22
2022-10-23T07:28:53.462Z,95140.78
2022-10-23T07:31:23.061Z,95137.81
2022-10-23T07:33:53.198Z,95127.13
2022-10-23T07:36:19.826Z,95125.88
2022-10-23T07:38:46.651Z,95120.63
2022-10-23T07:41:13.324Z,95122.63
2022-10-23T07:43:39.948Z,95106.91
2022-10-23T07:46:06.596Z,95121.91
2022-10-23T07:48:33.236Z,95120.31
2022-10-23T07:51:02.623Z,95121.19
2022-10-23T07:53:29.455Z,95123.59
2022-10-23T07:55:58.957Z,95113.97
2022-10-23T07:58:27.741Z,95110.19
2022-10-23T08:01:00.100Z,95116.09
2022-10-23T08:03:28.202Z,95115.03
2022-10-23T08:05:55.376Z,95113.66
2022-10-23T08:08:23.209Z,95113.38
2022-10-23T08:10:51.772Z,95112.84
2022-10-23T08:13:18.493Z,95125.13
2022-10-23T08:15:45.252Z,95128.88
2022-10-23T08:18:12.094Z,95113.09
2022-10-23T08:20:41.181Z,95125.66
2022-10-23T08:23:08.496Z,95116.38
2022-10-23T08:25:35.278Z,95116.09
2022-10-23T08:28:04.279Z,95119.25
2022-10-23T08:30:33.152Z,95126.72
2022-10-23T08:32:59.748Z,95116.53
2022-10-23T08:35:26.443Z,95117.97
2022-10-23T08:37:53.065Z,95130.75
2022-10-23T08:40:24.107Z,95121.97
2022-10-23T08:43:01.803Z,95114.75
2022-10-23T08:45:56.948Z,95121.19
2022-10-23T08:48:37.947Z,95111.81
2022-10-23T08:51:46.744Z,95113.69
2022-10-23T08:54:22.576Z,95104.31
2022-10-23T08:57:04.880Z,95105.38
2022-10-23T08:59:43.955Z,95100.06
2022-10-23T09:02:19.784Z,95098.19
2022-10-23T09:04:48.904Z,95104.31
2022-10-23T09:07:46.695Z,95093.91
2022-10-23T09:10:23.744Z,95101.91
2022-10-23T09:12:50.461Z,95104.88
2022-10-23T09:15:42.573Z,95096.31
2022-10-23T09:18:15.721Z,95094.66
2022-10-23T09:20:45.480Z,95069.59
2022-10-23T09:23:22.722Z,95086.66
2022-10-23T09:25:51.762Z,95089.38
2022-10-23T09:28:21.236Z,95087.75
2022-10-23T09:30:49.023Z,95083.44
2022-10-23T09:33:27.463Z,95080.28
2022-10-23T09:36:06.408Z,95091.22
2022-10-23T09:38:36.783Z,95084.53
2022-10-23T09:41:25.807Z,95087.75
2022-10-23T09:44:02.464Z,95091.50
2022-10-23T09:46:43.099Z,95079.69
2022-10-23T09:49:26.438Z,95084.75
2022-10-23T09:52:08.162Z,95089.78
2022-10-23T09:54:49.864Z,95095.19
2022-10-23T09:57:22.617Z,95100.97
2022-10-23T09:59:55.205Z,95100.03
2022-10-23T10:02:30.732Z,95103.00
2022-10-23T10:04:57.687Z,95106.72
2022-10-23T10:07:30.193Z,95110.47
2022-10-23T10:09:58.921Z,95109.38
2022-10-23T10:12:43.904Z,95103.81
2022-10-23T10:15:22.676Z,95106.72
2022-10-23T10:18:13.491Z,95120.09
2022-10-23T10:21:17.511Z,95143.34
2022-10-23T10:24:30.365Z,95136.66
2022-10-23T10:27:27.037Z,95135.28
2022-10-23T10:30:21.801Z,95143.88
2022-10-23T10:33:14.105Z,95118.78
2022-10-23T10:36:18.974Z,95143.31
2022-10-23T10:38:52.802Z,95121.97
2022-10-23T10:41:22.406Z,95091.50
2022-10-23T10:43:55.088Z,95095.53
2022-10-23T10:46:39.810Z,95077.06
2022-10-23T10:49:24.442Z,95079.53
2022-10-23T10:52:11.819Z,95083.34
2022-10-23T10:55:13.806Z,95093.34
2022-10-23T10:57:47.218Z,95106.16
2022-10-23T11:00:21.114Z,95107.31
2022-10-23T11:03:01.512Z,95116.53
2022-10-23T11:05:34.861Z,95111.28
2022-10-23T11:08:09.650Z,95078.53
2022-10-23T11:10:45.841Z,95041.00
2022-10-23T11:13:35.368Z,95015.00
2022-10-23T11:16:11.325Z,95049.06
2022-10-23T11:18:43.064Z,95061.88
2022-10-23T11:21:52.831Z,95037.72
2022-10-23T11:24:34.588Z,95080.28
2022-10-23T11:27:07.199Z,95035.06
2022-10-23T11:30:01.867Z,95030.19
2022-10-23T11:32:31.559Z,95042.16
2022-10-23T11:35:16.645Z,95051.59
2022-10-23T11:37:43.760Z,95049.72
2022-10-23T11:40:10.585Z,95051.06
2022-10-23T11:42:40.151Z,95030.25
2022-10-23T11:45:36.721Z,95033.13
2022-10-23T11:48:13.589Z,95008.56
2022-10-23T11:50:46.115Z,95002.38
2022-10-23T11:53:24.901Z,95016.88
2022-10-23T11:56:05.183Z,95018.28
2022-10-23T11:58:50.498Z,95031.41
2022-10-23T12:01:26.084Z,95009.53
2022-10-23T12:04:16.344Z,95010.50
2022-10-23T12:06:49.312Z,95004.84
2022-10-23T12:09:43.751Z,95002.56
2022-10-23T12:12:10.339Z,95000.38
2022-10-23T12:14:48.855Z,95011.03
2022-10-23T12:17:24.725Z,94991.09
2022-10-23T12:20:01.656Z,94974.78
2022-10-23T12:22:51.442Z,94965.78
2022-10-23T12:25:25.097Z,94989.78
2022-10-23T12:28:32.133Z,94990.06
2022-10-23T12:31:21.437Z,94996.50
2022-10-23T12:33:50.927Z,94989.88
2022-10-23T12:36:20.357Z,94987.09
2022-10-23T12:38:48.919Z,94981.41
2022-10-23T12:41:26.697Z,94954.69
2022-10-23T12:43:58.187Z,94959.09
2022-10-23T12:46:42.001Z,94953.91
2022-10-23T12:49:21.376Z,94958.09
2022-10-23T12:51:59.844Z,94950.66
2022-10-23T12:54:27.252Z,94942.34
2022-10-23T12:56:55.346Z,94962.19
2022-10-23T12:59:32.170Z,94971.53
2022-10-23T13:01:58.890Z,94958.44
2022-10-23T13:04:30.387Z,94963.53
2022-10-23T13:07:00.769Z,94951.78
2022-10-23T13:09:36.362Z,94958.38
2022-10-23T13:12:06.444Z,94959.25
2022-10-23T13:14:39.311Z,94954.72
2022-10-23T13:17:11.664Z,94942.00
2022-10-23T13:19:41.523Z,94943.81
2022-10-23T13:22:20.371Z,94936.25
2022-10-23T13:24:47.872Z,94921.25
2022-10-23T13:27:35.023Z,94937.84
2022-10-23T13:30:03.198Z,94955.97
2022-10-23T13:32:31.670Z,94950.72
2022-10-23T13:35:10.053Z,94959.44
2022-10-23T13:37:37.136Z,94933.56
2022-10-23T13:40:06.988Z,94940.97
2022-10-23T13:42:33.755Z,94929.72
2022-10-23T13:45:00.385Z,94921.28
2022-10-23T13:47:27.010Z,94935.63
2022-10-23T13:49:53.644Z,94923.94
2022-10-23T13:52:22.454Z,94927.19
2022-10-23T13:54:49.493Z,94919.84
2022-10-23T13:57:16.568Z,94924.59
2022-10-23T13:59:45.901Z,94927.81
2022-10-23T14:02:21.942Z,94921.44
2022-10-23T14:04:52.104Z,94896.00
2022-10-23T14:07:19.227Z,94887.09
2022-10-23T14:09:45.832Z,94884.75
2022-10-23T14:12:12.437Z,94891.63
2022-10-23T14:14:39.247Z,94896.63
2022-10-23T14:17:05.892Z,94895.34
2022-10-23T14:22:02.011Z,94894.72
2022-10-23T14:24:28.724Z,94898.34
2022-10-23T14:26:55.370Z,94889.94
2022-10-23T14:29:24.673Z,94899.22
2022-10-23T14:31:51.708Z,94894.44
2022-10-23T14:34:18.815Z,94888.06
2022-10-23T14:36:50.233Z,94894.91
2022-10-23T14:39:17.968Z,94887.06
2022-10-23T14:41:44.615Z,94897.09
2022-10-23T14:44:11.262Z,94894.31
2022-10-23T14:46:37.906Z,94887.13
2022-10-23T14:49:04.592Z,94875.09
2022-10-23T14:51:31.362Z,94878.13
2022-10-23T14:54:04.335Z,94876.66
2022-10-23T14:56:33.745Z,94881.91
2022-10-23T14:59:00.978Z,94871.81
2022-10-23T15:01:27.781Z,94867.16
2022-10-23T15:03:54.590Z,94873.22
2022-10-23T15:06:21.611Z,94867.44
2022-10-23T15:08:52.726Z,94881.25
2022-10-23T15:11:19.366Z,94874.72
2022-10-23T15:13:46.011Z,94872.00
2022-10-23T15:16:13.116Z,94868.31
2022-10-23T15:18:39.808Z,94859.53
2022-10-23T15:21:08.035Z,94850.13
2022-10-23T15:23:39.777Z,94847.09
2022-10-23T15:26:14.065Z,94841.81
2022-10-23T15:28:40.724Z,94852.22
2022-10-23T15:31:39.326Z,94848.97
2022-10-23T15:34:07.393Z,94858.31
2022-10-23T15:36:34.359Z,94851.13
2022-10-23T15:39:02.080Z,94856.44
2022-10-23T15:41:31.602Z,94863.13
2022-10-23T15:43:59.993Z,94870.19
2022-10-23T15:46:26.730Z,94867.94
2022-10-23T15:48:53.983Z,94892.59
2022-10-23T15:51:21.208Z,94878.88
2022-10-23T15:53:48.148Z,94889.25
2022-10-23T15:56:14.792Z,94875.00
2022-10-23T15:58:41.699Z,94872.81
2022-10-23T16:01:11.383Z,94872.09
2022-10-23T16:03:39.110Z,94875.06
2022-10-23T16:06:15.171Z,94883.84
2022-10-23T16:08:42.337Z,94883.47
2022-10-23T16:11:21.767Z,94890.00
2022-10-23T16:13:48.394Z,94890.94
2022-10-23T16:16:16.408Z,94897.41
2022-10-23T16:18:43.869Z,94896.97
2022-10-23T16:21:23.069Z,94925.81
2022-10-23T16:23:50.948Z,94921.19
2022-10-23T16:26:19.075Z,94913.16
2022-10-23T16:28:47.288Z,94920.34
2022-10-23T16:31:20.053Z,94920.53
2022-10-23T16:33:48.987Z,94897.28
2022-10-23T16:36:17.333Z,94917.72
2022-10-23T16:38:44.083Z,94914.66
2022-10-23T16:41:10.735Z,94932.41
2022-10-23T16:43:37.387Z,94930.31
2022-10-23T16:46:08.118Z,94938.38
2022-10-23T16:48:35.567Z,94941.06
2022-10-23T16:51:14.353Z,94930.81
2022-10-23T16:53:42.567Z,94935.31
2022-10-23T16:56:11.728Z,94932.91
2022-10-23T16:58:38.778Z,94949.88
2022-10-23T17:01:09.411Z,94942.41
2022-10-23T17:03:46.109Z,94958.66
2022-10-23T17:06:15.280Z,94959.94
2022-10-23T17:08:42.518Z,94967.34
2022-10-23T17:11:16.543Z,94972.03
2022-10-23T17:13:55.250Z,94983.88
2022-10-23T17:16:26.709Z,94989.63
2022-10-23T17:18:54.140Z,94997.38
2022-10-23T17:21:22.045Z,95021.13
2022-10-23T17:23:50.290Z,95043.69
2022-10-23T17:26:20.470Z,95061.59
2022-10-23T17:28:50.002Z,95083.19
2022-10-23T17:31:16.682Z,95100.56
2022-10-23T17:33:44.808Z,95118.19
2022-10-23T17:36:15.559Z,95122.47
2022-10-23T17:38:43.298Z,95149.19
2022-10-23T17:41:12.477Z,95153.44
2022-10-23T17:43:39.856Z,95145.66
2022-10-23T17:46:08.956Z,95160.88
2022-10-23T17:48:36.422Z,95163.28
2022-10-23T17:51:06.506Z,95173.06
2022-10-23T17:53:35.063Z,95199.31
2022-10-23T17:56:03.476Z,95210.28
2022-10-23T17:58:30.886Z,95215.09
2022-10-23T18:00:57.779Z,95217.72
2022-10-23T18:03:24.797Z,95208.34
2022-10-23T18:05:51.465Z,95216.16
2022-10-23T18:08:18.054Z,95213.59
2022-10-23T18:10:44.673Z,95204.72
2022-10-23T18:13:11.254Z,95215.22
2022-10-23T18:15:37.901Z,95201.75
2022-10-23T18:18:04.471Z,95205.06
2022-10-23T18:20:31.058Z,95196.97
2022-10-23T18:22:57.636Z,95187.00
2022-10-23T18:25:24.213Z,95203.75
2022-10-23T18:27:50.830Z,95203.50
2022-10-23T18:30:17.489Z,95225.19
2022-10-23T18:32:44.225Z,95219.00
2022-10-23T18:35:11.096Z,95225.13
2022-10-23T18:37:41.295Z,95210.22
2022-10-23T18:40:09.407Z,95207.00
2022-10-23T18:42:36.237Z,95196.25
2022-10-23T18:45:02.873Z,95167.34
2022-10-23T18:47:29.461Z,95208.06
2022-10-23T18:49:58.837Z,95230.53
2022-10-23T18:52:25.557Z,95241.75
2022-10-23T18:54:54.430Z,95228.06
2022-10-23T18:57:23.385Z,95257.28
2022-10-23T18:59:49.999Z,95251.38
2022-10-23T19:02:16.857Z,95233.56
2022-10-23T19:04:43.713Z,95232.97
2022-10-23T19:07:10.339Z,95215.41
2022-10-23T19:09:37.069Z,95232.44
2022-10-23T19:12:03.981Z,95187.44
2022-10-23T19:14:30.610Z,95139.91
2022-10-23T19:16:59.980Z,95149.06
2022-10-23T19:19:39.455Z,95177.38
2022-10-23T19:22:09.808Z,95172.34
2022-10-23T19:24:53.683Z,95134.25
2022-10-23T19:27:20.671Z,95140.09
2022-10-23T19:29:51.665Z,95091.88
2022-10-23T19:32:18.401Z,95079.97
2022-10-23T19:34:44.984Z,95122.69
2022-10-23T19:37:11.633Z,95139.97
2022-10-23T19:39:38.512Z,95139.44
2022-10-23T19:42:05.641Z,95133.69
2022-10-23T19:44:32.286Z,95105.03
2022-10-23T19:46:58.938Z,95088.34
2022-10-23T19:49:25.533Z,95087.69
2022-10-23T19:51:52.203Z,95066.34
2022-10-23T19:54:20.970Z,95073.09
2022-10-23T19:56:48.422Z,95071.53
2022-10-23T19:59:15.142Z,95061.91
2022-10-23T20:01:45.071Z,95061.97
2022-10-23T20:04:15.852Z,95074.06
2022-10-23T20:06:42.480Z,95063.59
2022-10-23T20:09:09.190Z,95063.28
2022-10-23T20:11:40.600Z,95064.13
2022-10-23T20:14:07.892Z,95053.69
2022-10-23T20:16:38.783Z,95051.13
2022-10-23T20:19:09.363Z,95064.59
2022-10-23T20:21:37.875Z,95074.56
2022-10-23T20:24:07.841Z,95082.72
2022-10-23T20:26:34.930Z,95081.03
2022-10-23T20:29:01.538Z,95077.75
2022-10-23T20:31:28.158Z,95099.69
2022-10-23T20:33:55.931Z,95124.72
2022-10-23T20:36:35.360Z,95116.13
2022-10-23T20:39:06.292Z,95086.88
2022-10-23T20:41:33.414Z,95053.28
2022-10-23T20:44:00.657Z,95039.13
2022-10-23T20:46:27.403Z,95038.41
2022-10-23T20:48:54.132Z,95054.59
2022-10-23T20:51:23.498Z,95063.34
2022-10-23T20:53:51.372Z,95060.91
2022-10-23T20:56:30.538Z,95079.09
2022-10-23T20:59:05.324Z,95093.44
2022-10-23T21:01:35.895Z,95109.44
2022-10-23T21:04:03.303Z,95128.22
2022-10-23T21:06:45.741Z,95142.41
2022-10-23T21:09:18.812Z,95145.50
2022-10-23T21:11:45.562Z,95125.00
2022-10-23T21:14:12.544Z,95116.25
2022-10-23T21:16:41.141Z,95118.25
2022-10-23T21:19:10.460Z,95126.81
2022-10-23T21:21:37.112Z,95119.72
2022-10-23T21:24:10.714Z,95126.63
2022-10-23T21:26:37.408Z,95116.47
2022-10-23T21:29:18.007Z,95101.50
2022-10-23T21:31:45.481Z,95087.66
2022-10-23T21:34:12.220Z,95082.06
2022-10-23T21:36:48.606Z,95074.09
2022-10-23T21:39:20.703Z,95093.28
2022-10-23T21:41:47.340Z,95094.41
2022-10-23T21:44:13.985Z,95091.34
2022-10-23T21:46:40.595Z,95103.84
2022-10-23T21:49:07.334Z,95088.09
2022-10-23T21:51:36.501Z,95082.91
2022-10-23T21:54:10.564Z,95079.66
2022-10-23T21:56:42.752Z,95097.41
2022-10-23T21:59:12.780Z,95121.88
2022-10-23T22:01:41.905Z,95109.13
2022-10-23T22:04:09.130Z,95101.56
2022-10-23T22:06:37.006Z,95109.63
2022-10-23T22:09:05.701Z,95100.06
2022-10-23T22:11:32.713Z,95109.66
2022-10-23T22:14:01.522Z,95104.25
2022-10-23T22:16:28.141Z,95117.91
2022-10-23T22:18:54.886Z,95112.69
2022-10-23T22:21:24.983Z,95101.09
2022-10-23T22:23:54.780Z,95073.41
2022-10-23T22:26:24.039Z,95080.91
2022-10-23T22:28:53.962Z,95125.91
2022-10-23T22:31:24.474Z,95145.25
2022-10-23T22:33:52.250Z,95158.03
2022-10-23T22:36:20.048Z,95133.22
2022-10-23T22:38:47.105Z,95166.91
2022-10-23T22:41:15.376Z,95227.34
2022-10-23T22:43:42.025Z,95216.47
2022-10-23T22:46:15.830Z,95231.69
2022-10-23T22:48:44.033Z,95240.47
2022-10-23T22:51:13.433Z,95214.75
2022-10-23T22:53:40.274Z,95207.00
2022-10-23T22:56:15.358Z,95195.59
2022-10-23T22:58:42.214Z,95193.81
2022-10-23T23:01:14.098Z,95200.81
2022-10-23T23:03:41.080Z,95186.34
2022-10-23T23:06:09.242Z,95210.94
2022-10-23T23:08:37.616Z,95219.47
2022-10-23T23:11:05.898Z,95187.38
2022-10-23T23:13:32.780Z,95183.69
2022-10-23T23:16:02.886Z,95165.06
2022-10-23T23:18:29.798Z,95164.66
2022-10-23T23:21:05.662Z,95171.22
2022-10-23T23:23:32.408Z,95198.53
2022-10-23T23:25:59.129Z,95174.53
2022-10-23T23:28:25.741Z,95173.53
2022-10-23T23:31:06.129Z,95199.34
2022-10-23T23:33:32.865Z,95192.28
2022-10-23T23:35:59.786Z,95195.31
2022-10-23T23:38:26.775Z,95218.38
2022-10-23T23:40:53.983Z,95220.16
2022-10-23T23:43:20.699Z,95211.19
2022-10-23T23:45:47.282Z,95216.50
2022-10-23T23:48:13.952Z,95222.84
2022-10-23T23:50:41.454Z,95231.34
2022-10-23T23:53:08.098Z,95229.78
2022-10-23T23:55:34.999Z,95225.81
2022-10-23T23:58:01.977Z,95188.41
